Terminal Aerodrome Forecast
Issued by NWS Grand Forks, ND

Home | Current Version | Previous Version | Text Only | Print | Product List | Glossary On
Versions: 1 2 3 4 5 6 7 8 9 10 11 12 13 14 15 16 17 18 19 20 21
700
FTUS43 KFGF 312324
TAFGFK
TAF
KGFK 312324Z 0100/0124 18010KT P6SM VCSH FEW050 SCT090
     FM010300 18006KT P6SM -SHRA OVC090
     FM010800 26006KT P6SM -SHRA OVC025
     FM011100 30010KT P6SM VCSH OVC015
     FM011200 31013G22KT P6SM VCSH OVC008
     FM012100 31016G23KT P6SM OVC025=

USA.gov is the U.S. government's official web portal to all federal, state and local government web resources and services.